Time;durP1;ratioP1;P1;durP2;ratioP2;P2;SDS_P1;SDS_P2;PMS_P1;PMS_P2;Temp;Humidity;BMP_temperature;BMP_pressure;BME280_temperature;BME280_humidity;BME280_pressure;Samples;Min_cycle;Max_cycle;Signal;HPM_P1;HPM_P2
2021/05/11 06:50:32;;;;;;;8.15;2.27;;;;;;;15.40;41.51;98438.30;1890697;76;21857;-70
2021/05/11 06:53:15;;;;;;;6.28;2.17;;;;;;;15.54;40.51;98428.23;1878271;76;23273;-66
2021/05/11 06:55:52;;;;;;;6.87;2.40;;;;;;;15.70;40.39;98438.85;1851256;76;27736;-65
2021/05/11 06:58:39;;;;;;;10.78;2.20;;;;;;;15.81;39.90;98433.41;1845930;77;21076;-66
2021/05/11 07:01:21;;;;;;;6.20;2.20;;;;;;;16.04;39.93;98430.83;1822519;76;27708;-64
2021/05/11 07:03:58;;;;;;;9.28;2.30;;;;;;;16.27;39.34;98439.06;1872985;76;22663;-65
2021/05/11 07:06:44;;;;;;;3.95;2.12;;;;;;;16.45;38.62;98441.23;1878480;76;22675;-64
2021/05/11 07:15:27;;;;;;;9.18;2.15;;;;;;;16.81;36.99;98442.30;1844269;77;20907;-61
2021/05/11 07:18:11;;;;;;;5.65;2.33;;;;;;;16.97;36.57;98439.34;1812757;77;22663;-67
2021/05/11 07:20:50;;;;;;;10.43;2.20;;;;;;;17.06;36.63;98441.47;1840031;77;22837;-66
2021/05/11 07:23:28;;;;;;;6.55;2.10;;;;;;;17.16;36.03;98434.92;1878811;76;22694;-64
2021/05/11 07:31:41;;;;;;;5.00;1.70;;;;;;;17.41;34.89;98434.05;1871829;76;23214;-68
2021/05/11 07:34:20;;;;;;;6.67;2.00;;;;;;;17.48;35.35;98422.95;1809430;76;27780;-68
2021/05/11 07:36:56;;;;;;;6.17;2.02;;;;;;;17.64;35.78;98418.62;1856593;76;22607;-69
2021/05/11 07:39:32;;;;;;;4.43;2.30;;;;;;;17.75;35.33;98429.34;1854932;76;27666;-64
2021/05/11 07:42:20;;;;;;;5.90;2.12;;;;;;;17.91;35.05;98420.09;1885693;74;27827;-67
2021/05/11 07:45:03;;;;;;;4.80;2.45;;;;;;;18.07;34.31;98423.02;1818485;76;22698;-68
2021/05/11 07:50:45;;;;;;;7.37;1.90;;;;;;;18.19;34.38;98417.68;1861480;76;22927;-68
2021/05/11 08:01:51;;;;;;;4.05;2.17;;;;;;;18.25;34.78;98413.67;1855693;76;22706;-66
2021/05/11 08:16:29;;;;;;;3.55;1.95;;;;;;;18.92;33.66;98398.52;1873022;76;22686;-64
2021/05/11 08:27:47;;;;;;;9.90;2.62;;;;;;;19.19;32.93;98398.48;1869768;76;22783;-67
2021/05/11 08:30:34;;;;;;;7.70;2.50;;;;;;;19.16;33.29;98391.00;1818899;78;20911;-64
2021/05/11 08:33:11;;;;;;;4.03;2.50;;;;;;;19.29;33.00;98390.69;1838068;76;21958;-68
2021/05/11 08:35:51;;;;;;;3.15;2.00;;;;;;;19.34;32.49;98380.97;1878527;76;22094;-70
2021/05/11 08:38:28;;;;;;;7.28;2.87;;;;;;;19.41;32.75;98380.43;1878270;76;22367;-66
2021/05/11 08:41:15;;;;;;;5.65;2.45;;;;;;;19.40;32.41;98376.14;1838966;77;21659;-65
2021/05/11 08:43:52;;;;;;;8.50;2.95;;;;;;;19.51;31.10;98374.00;1856299;76;27686;-68
2021/05/11 08:46:29;;;;;;;6.03;2.30;;;;;;;19.61;31.47;98368.69;1822172;76;27818;-67
2021/05/11 08:49:15;;;;;;;5.33;2.15;;;;;;;19.69;31.46;98378.63;1812017;79;21139;-68
2021/05/11 08:52:04;;;;;;;6.30;2.55;;;;;;;19.83;30.91;98373.67;1872907;76;22768;-69
2021/05/11 09:15:49;;;;;;;8.88;2.27;;;;;;;20.30;30.55;98364.44;1871984;76;23275;-63
2021/05/11 09:30:25;;;;;;;5.67;1.67;;;;;;;20.49;28.41;98370.61;1872405;76;23090;-65
2021/05/11 10:14:55;;;;;;;3.85;1.40;;;;;;;21.35;27.17;98324.89;1850879;76;22707;-65
2021/05/11 10:36:20;;;;;;;2.02;1.30;;;;;;;21.49;26.20;98321.94;1872892;76;22715;-67
2021/05/11 10:39:05;;;;;;;7.30;1.25;;;;;;;21.58;24.67;98311.63;1869729;74;23273;-66
2021/05/11 10:47:00;;;;;;;3.58;1.12;;;;;;;21.68;24.18;98299.40;1865162;76;23177;-66
2021/05/11 10:49:43;;;;;;;4.35;1.40;;;;;;;21.74;24.29;98300.13;1891587;75;22685;-68
2021/05/11 10:55:16;;;;;;;3.35;1.22;;;;;;;21.87;23.37;98294.59;1873060;76;22573;-67
2021/05/11 11:00:43;;;;;;;2.45;1.45;;;;;;;21.90;23.24;98288.43;1832102;77;23355;-66
2021/05/11 11:03:44;;;;;;;6.83;1.57;;;;;;;21.89;24.28;98288.20;1872491;75;22646;-68
2021/05/11 11:06:18;;;;;;;2.25;1.10;;;;;;;21.90;23.64;98285.70;1834188;75;22688;-67
2021/05/11 11:09:03;;;;;;;3.33;1.50;;;;;;;21.88;23.56;98281.19;1858591;76;27686;-68
2021/05/11 11:11:41;;;;;;;3.70;1.20;;;;;;;21.98;23.76;98277.87;1851285;76;27784;-68
2021/05/11 11:14:49;;;;;;;4.47;1.30;;;;;;;22.14;22.76;98278.63;1873975;76;27605;-70
2021/05/11 11:17:54;;;;;;;5.50;1.32;;;;;;;22.26;22.43;98271.63;1849188;77;23293;-64
2021/05/11 11:20:44;;;;;;;3.80;1.35;;;;;;;22.33;22.72;98275.87;1915976;74;22333;-70
2021/05/11 11:37:02;;;;;;;4.50;1.27;;;;;;;23.13;21.83;98265.66;1765191;80;22768;-68
2021/05/11 11:39:50;;;;;;;2.87;1.17;;;;;;;23.28;21.51;98257.69;1856973;76;22648;-69
2021/05/11 11:42:40;;;;;;;2.87;1.22;;;;;;;23.33;21.50;98253.28;1739753;80;20943;-68
2021/05/11 11:45:25;;;;;;;6.97;1.15;;;;;;;23.54;21.81;98252.27;1890272;74;22611;-65
2021/05/11 11:48:05;;;;;;;2.02;1.12;;;;;;;23.64;21.07;98241.50;1871751;76;22672;-65
2021/05/11 11:50:42;;;;;;;3.87;1.20;;;;;;;23.81;21.17;98247.77;1845944;76;22683;-67
2021/05/11 11:53:32;;;;;;;5.62;1.30;;;;;;;23.94;20.59;98246.97;1845114;77;20943;-69
2021/05/11 11:59:14;;;;;;;5.33;1.40;;;;;;;24.31;20.18;98243.73;1865124;75;23247;-68
2021/05/11 12:02:03;;;;;;;6.33;1.30;;;;;;;24.31;20.08;98234.15;1825256;76;21018;-67
2021/05/11 12:04:40;;;;;;;4.17;1.10;;;;;;;24.53;20.50;98227.53;1857845;75;22687;-73
2021/05/11 12:07:18;;;;;;;3.27;1.22;;;;;;;24.69;20.10;98226.70;1873762;74;27794;-68
2021/05/11 12:09:54;;;;;;;2.83;1.15;;;;;;;24.86;19.44;98226.91;1871917;76;22634;-67
2021/05/11 12:12:35;;;;;;;6.40;1.40;;;;;;;25.00;19.26;98225.67;1868581;76;23298;-69
2021/05/11 12:15:30;;;;;;;5.92;1.47;;;;;;;24.97;19.62;98229.73;1808723;78;20998;-70
2021/05/11 12:21:05;;;;;;;6.20;1.50;;;;;;;25.04;19.08;98222.94;1871009;76;22613;-68
2021/05/11 12:23:43;;;;;;;3.52;1.30;;;;;;;25.14;19.81;98212.66;1837067;76;22761;-68
2021/05/11 12:26:20;;;;;;;4.78;1.50;;;;;;;25.28;19.05;98210.02;1861248;76;27849;-67
2021/05/11 12:29:17;;;;;;;6.92;1.37;;;;;;;25.38;18.94;98220.27;1830804;75;21651;-68
2021/05/11 12:31:54;;;;;;;3.47;0.98;;;;;;;25.55;18.99;98211.41;1872328;76;22612;-70
2021/05/11 12:34:29;;;;;;;3.80;1.30;;;;;;;25.62;18.69;98211.45;1852908;77;20872;-68
2021/05/11 12:37:06;;;;;;;3.47;1.20;;;;;;;25.84;18.90;98201.95;1857370;76;22655;-68
2021/05/11 12:39:52;;;;;;;3.67;1.40;;;;;;;25.95;18.51;98201.41;1857045;76;27749;-75
2021/05/11 12:42:42;;;;;;;5.03;1.40;;;;;;;25.98;18.09;98193.78;1825434;76;21121;-67
2021/05/11 12:45:18;;;;;;;3.75;1.15;;;;;;;26.00;18.15;98192.80;1790078;77;22757;-75
2021/05/11 12:48:01;;;;;;;6.03;1.33;;;;;;;26.07;18.53;98195.57;1860296;76;27929;-67
2021/05/11 12:50:39;;;;;;;5.08;1.30;;;;;;;26.33;18.12;98193.92;1871387;76;22635;-68
2021/05/11 12:53:31;;;;;;;6.10;1.50;;;;;;;26.48;17.86;98183.14;1859410;76;22616;-66
2021/05/11 12:56:16;;;;;;;3.98;1.37;;;;;;;26.64;17.89;98195.91;1873095;76;22589;-72
2021/05/11 12:59:15;;;;;;;5.33;1.30;;;;;;;26.72;16.72;98193.97;1865561;76;22774;-66
2021/05/11 13:04:57;;;;;;;2.77;1.20;;;;;;;26.52;16.99;98182.55;1873004;76;22641;-72
